Terminal Aerodrome Forecast
Issued by NWS Cleveland, OH

Home | Current Version | Previous Version | Graphics & Text | Print | Product List | Glossary Off
Versions: 1 2 3 4 5 6 7 8 9 10 11 12 13 14 15 16

695
FTUS41 KCLE 161130
TAFTOL
TAF
KTOL 161130Z 1612/1712 28005KT P6SM SCT040 BKN060
     FM170100 22003KT P6SM SCT040=

USA.gov is the U.S. government's official web portal to all federal, state and local government web resources and services.